Englewood, Colorado
Current Conditions -  °F | °C
As of 6:53 AM on Saturday 22 Nov 2014 (Local Time) from KAPA Reporting Station
Scattered Clouds Scattered Clouds  
Wind Chill: 35°   Ceiling: Unl
Heat Index: 43°   Visibility: 10mi
Dew Point: 12°   Wind: 18mph
Humidity: 28%   Direction: 220°SW
Pressure: 29.81"   Gusts: NA
Location:  39.65°N, 104.99°W
Report Text: KAPA 221353Z 22016KT 10SM SCT120 SCT200 06/M11 A2981 RMK AO2 SLP093 T00611111
Loading
Personal Weather Stations






























Interactive Weather Map New forecast layout! Learn more

10-Day Weather Forecast

Advertisements
Track Severe Weather on mobile